createdAt,value
2016-05-28T00:00:38.329Z,55.24
2016-05-28T00:01:38.316Z,55.15
2016-05-28T00:02:38.351Z,55.15
2016-05-28T00:03:38.354Z,55.15
2016-05-28T00:04:38.215Z,55.05
2016-05-28T00:05:38.359Z,55.15
2016-05-28T00:06:38.377Z,55.05
2016-05-28T00:07:38.379Z,55.15
2016-05-28T00:08:38.414Z,55.05
2016-05-28T00:09:38.401Z,55.15
2016-05-28T00:10:38.418Z,55.05
2016-05-28T00:11:38.422Z,55.15
2016-05-28T00:12:38.456Z,55.15
2016-05-28T00:13:38.443Z,55.05
2016-05-28T00:14:38.321Z,55.05
2016-05-28T00:15:38.479Z,55.34
2016-05-28T00:16:38.498Z,54.95
2016-05-28T00:17:38.500Z,55.05
2016-05-28T00:18:38.503Z,55.24
2016-05-28T00:19:38.772Z,55.15
2016-05-28T00:20:38.540Z,55.15
2016-05-28T00:21:38.402Z,55.24
2016-05-28T00:22:38.545Z,55.43
2016-05-28T00:23:38.564Z,55.15
2016-05-28T00:24:38.567Z,55.05
2016-05-28T00:25:38.428Z,55.15
2016-05-28T00:26:38.586Z,55.05
2016-05-28T00:27:38.606Z,54.95
2016-05-28T00:28:38.608Z,55.24
2016-05-28T00:29:38.627Z,55.24
2016-05-28T00:30:38.458Z,54.95
2016-05-28T00:31:38.632Z,55.34
2016-05-28T00:32:38.650Z,54.95
2016-05-28T00:33:38.669Z,55.24
2016-05-28T00:34:38.983Z,55.05
2016-05-28T00:35:38.533Z,55.05
2016-05-28T00:36:38.693Z,55.05
2016-05-28T00:37:38.711Z,55.05
2016-05-28T00:38:38.557Z,55.24
2016-05-28T00:39:38.732Z,55.34
2016-05-28T00:40:38.734Z,54.95
2016-05-28T00:41:38.752Z,54.95
2016-05-28T00:42:38.771Z,55.05
2016-05-28T00:43:38.758Z,55.05
2016-05-28T00:44:38.776Z,55.34
2016-05-28T00:45:38.795Z,55.15
2016-05-28T00:46:38.798Z,55.24
2016-05-28T00:47:38.801Z,55.24
2016-05-28T00:48:38.818Z,55.15
2016-05-28T00:49:38.821Z,55.24
2016-05-28T00:50:38.823Z,55.34
2016-05-28T00:51:38.858Z,55.24
2016-05-28T00:52:38.861Z,55.24
2016-05-28T00:53:38.722Z,55.34
2016-05-28T00:54:38.881Z,55.15
2016-05-28T00:55:38.900Z,55.24
2016-05-28T00:56:38.917Z,55.34
2016-05-28T00:57:38.906Z,55.24
2016-05-28T00:58:38.923Z,55.24
2016-05-28T00:59:38.925Z,55.24
2016-05-28T01:00:38.929Z,55.15
2016-05-28T01:01:38.947Z,54.95
2016-05-28T01:02:38.965Z,55.24
2016-05-28T01:03:38.968Z,55.15
2016-05-28T01:04:39.018Z,55.15
2016-05-28T01:05:38.989Z,55.24
2016-05-28T01:06:39.007Z,55.34
2016-05-28T01:07:39.026Z,55.15
2016-05-28T01:08:39.029Z,55.24
2016-05-28T01:09:38.891Z,55.24
2016-05-28T01:10:39.035Z,55.24
2016-05-28T01:11:39.129Z,55.24
2016-05-28T01:12:39.054Z,55.24
2016-05-28T01:13:39.088Z,55.15
2016-05-28T01:14:39.076Z,55.15
2016-05-28T01:15:39.156Z,55.24
2016-05-28T01:16:39.113Z,55.15
2016-05-28T01:17:39.115Z,55.05
2016-05-28T01:18:38.962Z,55.24
2016-05-28T01:19:39.136Z,55.15
2016-05-28T01:20:39.154Z,55.24
2016-05-28T01:21:39.157Z,55.24
2016-05-28T01:22:39.159Z,55.24
2016-05-28T01:23:39.178Z,55.24
2016-05-28T01:24:39.181Z,55.05
2016-05-28T01:25:39.183Z,55.24
2016-05-28T01:26:39.202Z,55.05
2016-05-28T01:27:39.219Z,55.05
2016-05-28T01:28:39.208Z,55.05
2016-05-28T01:29:39.242Z,55.24
2016-05-28T01:30:39.259Z,55.24
2016-05-28T01:31:39.262Z,55.34
2016-05-28T01:32:39.280Z,55.05
2016-05-28T01:33:39.283Z,55.15
2016-05-28T01:34:39.380Z,55.05
2016-05-28T01:35:39.288Z,55.05
2016-05-28T01:36:39.291Z,55.24
2016-05-28T01:37:39.341Z,55.05
2016-05-28T01:38:39.327Z,55.24
2016-05-28T01:39:39.190Z,55.24
2016-05-28T01:40:39.348Z,54.95
2016-05-28T01:41:39.352Z,55.24
2016-05-28T01:42:39.370Z,55.24
2016-05-28T01:43:39.388Z,55.05
2016-05-28T01:44:39.407Z,55.24
2016-05-28T01:45:39.393Z,55.34
2016-05-28T01:46:39.412Z,55.24
2016-05-28T01:47:39.415Z,55.24
2016-05-28T01:48:39.432Z,54.95
2016-05-28T01:49:39.435Z,54.95
2016-05-28T01:50:39.282Z,55.24
2016-05-28T01:51:39.300Z,55.15
2016-05-28T01:52:39.475Z,55.24
2016-05-28T01:53:39.477Z,55.15
2016-05-28T01:54:39.495Z,55.05
2016-05-28T01:55:39.514Z,55.05
2016-05-28T01:56:39.533Z,55.15
2016-05-28T01:57:39.520Z,55.24
2016-05-28T01:58:39.538Z,54.95
2016-05-28T01:59:39.541Z,55.05
2016-05-28T02:00:39.559Z,55.24
2016-05-28T02:01:39.561Z,54.95
2016-05-28T02:02:39.580Z,55.24
2016-05-28T02:03:39.597Z,55.05
2016-05-28T02:04:39.616Z,55.05
2016-05-28T02:05:39.603Z,55.15
2016-05-28T02:06:39.622Z,55.24
2016-05-28T02:07:39.625Z,55.15
2016-05-28T02:08:39.643Z,55.05
2016-05-28T02:09:39.646Z,55.15
2016-05-28T02:10:39.664Z,55.05
2016-05-28T02:11:39.667Z,55.05
2016-05-28T02:12:39.669Z,55.24
2016-05-28T02:13:39.671Z,54.95
2016-05-28T02:14:39.721Z,55.24
2016-05-28T02:15:39.693Z,55.24
2016-05-28T02:16:39.712Z,55.24
2016-05-28T02:17:39.714Z,55.05
2016-05-28T02:18:39.732Z,55.05
2016-05-28T02:19:39.594Z,55.15
2016-05-28T02:20:39.769Z,55.24
2016-05-28T02:21:39.756Z,55.24
2016-05-28T02:22:39.789Z,55.24
2016-05-28T02:23:39.793Z,55.24
2016-05-28T02:24:39.811Z,55.05
2016-05-28T02:25:39.798Z,55.24
2016-05-28T02:26:39.817Z,55.34
2016-05-28T02:27:39.694Z,55.05
2016-05-28T02:28:39.853Z,54.95
2016-05-28T02:29:39.856Z,55.24
2016-05-28T02:30:39.874Z,55.24
2016-05-28T02:31:39.877Z,54.95
2016-05-28T02:32:39.880Z,55.24
2016-05-28T02:33:39.741Z,55.15
2016-05-28T02:34:39.916Z,55.24
2016-05-28T02:35:39.918Z,55.34
2016-05-28T02:36:39.921Z,55.24
2016-05-28T02:37:39.940Z,55.15
2016-05-28T02:38:39.942Z,55.15
2016-05-28T02:39:39.945Z,55.24
2016-05-28T02:40:39.963Z,55.21
2016-05-28T02:41:39.966Z,55.24
2016-05-28T02:42:39.984Z,55.24
2016-05-28T02:43:40.003Z,55.15
2016-05-28T02:44:40.005Z,55.24
2016-05-28T02:45:40.007Z,55.15
2016-05-28T02:46:39.871Z,55.34
2016-05-28T02:47:40.045Z,55.24
2016-05-28T02:48:40.048Z,55.15
2016-05-28T02:49:40.284Z,55.24
2016-05-28T02:50:40.068Z,55.24
2016-05-28T02:51:40.071Z,55.34
2016-05-28T02:52:40.090Z,55.15
2016-05-28T02:53:40.093Z,55.34
2016-05-28T02:54:40.094Z,55.24
2016-05-28T02:55:40.128Z,55.34
2016-05-28T02:56:40.131Z,55.24
2016-05-28T02:57:40.072Z,55.24
2016-05-28T02:58:40.152Z,55.24
2016-05-28T02:59:40.155Z,55.15
2016-05-28T03:00:40.158Z,55.34
2016-05-28T03:01:40.175Z,55.15
2016-05-28T03:02:40.195Z,55.24
2016-05-28T03:03:40.197Z,55.24
2016-05-28T03:04:40.637Z,55.34
2016-05-28T03:05:40.218Z,55.24
2016-05-28T03:06:40.221Z,55.15
2016-05-28T03:07:40.238Z,55.24
2016-05-28T03:08:40.242Z,55.15
2016-05-28T03:09:40.260Z,55.24
2016-05-28T03:10:40.122Z,55.24
2016-05-28T03:11:40.281Z,55.24
2016-05-28T03:12:40.284Z,55.34
2016-05-28T03:13:40.302Z,55.24
2016-05-28T03:14:40.321Z,55.15
2016-05-28T03:15:40.166Z,55.24
2016-05-28T03:16:40.326Z,55.15
2016-05-28T03:17:40.343Z,55.24
2016-05-28T03:18:40.207Z,55.34
2016-05-28T03:19:40.537Z,55.11
2016-05-28T03:20:40.384Z,55.24
2016-05-28T03:21:40.386Z,55.24
2016-05-28T03:22:40.420Z,55.34
2016-05-28T03:23:40.392Z,55.24
2016-05-28T03:24:40.426Z,55.24
2016-05-28T03:25:40.443Z,55.24
2016-05-28T03:26:40.431Z,55.02
2016-05-28T03:27:40.433Z,54.95
2016-05-28T03:28:40.451Z,55.21
2016-05-28T03:29:40.454Z,55.34
2016-05-28T03:30:40.473Z,55.24
2016-05-28T03:31:40.475Z,55.21
2016-05-28T03:32:40.494Z,55.24
2016-05-28T03:33:40.497Z,55.24
2016-05-28T03:34:40.530Z,55.34
2016-05-28T03:35:40.517Z,55.34
2016-05-28T03:36:40.552Z,55.15
2016-05-28T03:37:40.538Z,55.24
2016-05-28T03:38:40.557Z,55.15
2016-05-28T03:39:40.559Z,55.15
2016-05-28T03:40:40.577Z,54.85
2016-05-28T03:41:40.581Z,55.24
2016-05-28T03:42:40.583Z,55.34
2016-05-28T03:43:40.616Z,55.15
2016-05-28T03:44:40.636Z,55.05
2016-05-28T03:45:40.622Z,54.95
2016-05-28T03:46:40.641Z,55.15
2016-05-28T03:47:40.643Z,55.24
2016-05-28T03:48:40.646Z,54.85
2016-05-28T03:49:40.680Z,55.34
2016-05-28T03:50:40.668Z,55.15
2016-05-28T03:51:40.685Z,55.24
2016-05-28T03:52:40.673Z,55.05
2016-05-28T03:53:40.707Z,55.24
2016-05-28T03:54:40.710Z,54.85
2016-05-28T03:55:40.728Z,55.15
2016-05-28T03:56:40.745Z,54.85
2016-05-28T03:57:40.748Z,55.15
2016-05-28T03:58:40.767Z,55.15
2016-05-28T03:59:40.769Z,55.34
2016-05-28T04:00:40.787Z,54.95
2016-05-28T04:01:40.806Z,55.11
2016-05-28T04:02:40.793Z,55.15
2016-05-28T04:03:40.812Z,55.21
2016-05-28T04:04:40.986Z,55.21
2016-05-28T04:05:40.848Z,55.15
2016-05-28T04:06:40.836Z,55.05
2016-05-28T04:07:40.853Z,55.15
2016-05-28T04:08:40.855Z,55.21
2016-05-28T04:09:40.875Z,54.93
2016-05-28T04:10:40.877Z,55.15
2016-05-28T04:11:40.927Z,55.05
2016-05-28T04:12:40.899Z,55.11
2016-05-28T04:13:40.901Z,55.05
2016-05-28T04:14:40.919Z,55.15
2016-05-28T04:15:40.938Z,55.05
2016-05-28T04:16:40.941Z,55.11
2016-05-28T04:17:40.943Z,54.95
2016-05-28T04:18:40.961Z,55.11
2016-05-28T04:19:41.214Z,54.95
2016-05-28T04:20:40.982Z,55.02
2016-05-28T04:21:40.985Z,54.93
2016-05-28T04:22:41.003Z,55.15
2016-05-28T04:23:41.006Z,55.05
2016-05-28T04:24:41.024Z,55.15
2016-05-28T04:25:41.027Z,55.05
2016-05-28T04:26:41.045Z,55.11
2016-05-28T04:27:41.048Z,54.95
2016-05-28T04:28:41.066Z,55.05
2016-05-28T04:29:41.069Z,55.05
2016-05-28T04:30:41.087Z,55.15
2016-05-28T04:31:41.105Z,55.24
2016-05-28T04:32:41.123Z,55.05
2016-05-28T04:33:40.955Z,55.15
2016-05-28T04:34:41.722Z,55.15
2016-05-28T04:35:41.131Z,55.15
2016-05-28T04:36:41.150Z,55.24
2016-05-28T04:37:41.169Z,55.15
2016-05-28T04:38:41.156Z,55.15
2016-05-28T04:39:41.189Z,55.11
2016-05-28T04:40:41.177Z,55.21
2016-05-28T04:41:41.211Z,55.15
2016-05-28T04:42:41.197Z,55.15
2016-05-28T04:43:41.216Z,55.21
2016-05-28T04:44:41.219Z,55.05
2016-05-28T04:45:41.238Z,55.15
2016-05-28T04:46:41.224Z,55.05
2016-05-28T04:47:41.243Z,55.05
2016-05-28T04:48:41.261Z,54.95
2016-05-28T04:49:41.560Z,55.15
2016-05-28T04:50:41.282Z,55.15
2016-05-28T04:51:41.300Z,55.05
2016-05-28T04:52:41.318Z,54.95
2016-05-28T04:53:41.321Z,54.85
2016-05-28T04:54:41.340Z,55.05
2016-05-28T04:55:41.185Z,55.05
2016-05-28T04:56:41.345Z,54.95
2016-05-28T04:57:41.347Z,54.95
2016-05-28T04:58:41.365Z,54.95
2016-05-28T04:59:41.368Z,54.95
2016-05-28T05:00:41.387Z,54.83
2016-05-28T05:01:41.405Z,55.05
2016-05-28T05:02:41.408Z,55.05
2016-05-28T05:03:41.411Z,54.85
2016-05-28T05:04:41.928Z,54.95
2016-05-28T05:05:41.431Z,54.95
2016-05-28T05:06:41.449Z,54.85
2016-05-28T05:07:41.452Z,54.95
2016-05-28T05:08:41.465Z,54.95
2016-05-28T05:09:41.507Z,54.93
2016-05-28T05:10:41.534Z,55.05
2016-05-28T05:11:41.561Z,55.05
2016-05-28T05:12:41.604Z,54.95
2016-05-28T05:13:41.642Z,55.05
2016-05-28T05:14:41.654Z,54.95
2016-05-28T05:15:41.696Z,55.05
2016-05-28T05:16:41.691Z,54.95
2016-05-28T05:17:41.719Z,54.85
2016-05-28T05:18:41.776Z,54.93
2016-05-28T05:19:42.375Z,55.05
2016-05-28T05:20:41.755Z,54.95
2016-05-28T05:21:41.621Z,54.95
2016-05-28T05:22:41.799Z,55.05
2016-05-28T05:23:41.803Z,54.95
2016-05-28T05:24:41.808Z,55.05
2016-05-28T05:25:41.826Z,54.95
2016-05-28T05:26:41.846Z,54.95
2016-05-28T05:27:41.866Z,54.95
2016-05-28T05:28:41.869Z,54.95
2016-05-28T05:29:41.872Z,54.95
2016-05-28T05:30:41.890Z,54.95
2016-05-28T05:31:41.879Z,54.95
2016-05-28T05:32:41.897Z,54.95
2016-05-28T05:33:41.900Z,54.85
2016-05-28T05:34:41.918Z,54.93
2016-05-28T05:35:41.920Z,54.95
2016-05-28T05:36:41.940Z,54.95
2016-05-28T05:37:41.957Z,55.05
2016-05-28T05:38:41.960Z,54.95
2016-05-28T05:39:41.822Z,54.93
2016-05-28T05:40:41.981Z,54.95
2016-05-28T05:41:41.984Z,54.95
2016-05-28T05:42:42.002Z,54.95
2016-05-28T05:43:42.004Z,55.02
2016-05-28T05:44:42.039Z,55.05
2016-05-28T05:45:42.026Z,54.95
2016-05-28T05:46:42.060Z,55.05
2016-05-28T05:47:42.062Z,54.93
2016-05-28T05:48:42.064Z,55.05
2016-05-28T05:49:42.271Z,54.95
2016-05-28T05:50:42.086Z,54.95
2016-05-28T05:51:42.089Z,54.95
2016-05-28T05:52:42.108Z,54.95
2016-05-28T05:53:42.125Z,54.85
2016-05-28T05:54:42.144Z,55.05
2016-05-28T05:55:42.115Z,55.05
2016-05-28T05:56:42.134Z,54.85
2016-05-28T05:57:42.136Z,55.43
2016-05-28T05:58:42.155Z,55.05
2016-05-28T05:59:42.173Z,55.05
2016-05-28T06:00:42.191Z,55.15
2016-05-28T06:01:42.210Z,54.95
2016-05-28T06:02:42.040Z,54.95
2016-05-28T06:03:42.216Z,54.95
2016-05-28T06:04:42.233Z,54.95
2016-05-28T06:05:42.236Z,54.85
2016-05-28T06:06:42.082Z,54.85
2016-05-28T06:07:42.256Z,54.95
2016-05-28T06:08:42.259Z,54.95
2016-05-28T06:09:42.325Z,54.95
2016-05-28T06:10:42.296Z,54.85
2016-05-28T06:11:42.314Z,54.85
2016-05-28T06:12:42.145Z,54.95
2016-05-28T06:13:42.304Z,55.05
2016-05-28T06:14:42.323Z,55.15
2016-05-28T06:15:42.325Z,55.05
2016-05-28T06:16:42.359Z,55.05
2016-05-28T06:17:42.346Z,54.95
2016-05-28T06:18:42.365Z,55.05
2016-05-28T06:19:42.367Z,55.15
2016-05-28T06:20:42.229Z,55.05
2016-05-28T06:21:42.404Z,55.15
2016-05-28T06:22:42.422Z,55.05
2016-05-28T06:23:42.409Z,54.66
2016-05-28T06:24:42.428Z,54.57
2016-05-28T06:25:42.430Z,54.75
2016-05-28T06:26:42.433Z,54.66
2016-05-28T06:27:42.483Z,54.85
2016-05-28T06:28:42.469Z,54.66
2016-05-28T06:29:42.472Z,54.66
2016-05-28T06:30:42.491Z,55.05
2016-05-28T06:31:42.493Z,55.05
2016-05-28T06:32:42.355Z,55.15
2016-05-28T06:33:42.514Z,55.05
2016-05-28T06:34:42.377Z,55.15
2016-05-28T06:35:42.535Z,55.05
2016-05-28T06:36:42.397Z,54.95
2016-05-28T06:37:42.399Z,54.95
2016-05-28T06:38:42.402Z,55.15
2016-05-28T06:39:42.577Z,55.15
2016-05-28T06:40:42.424Z,55.15
2016-05-28T06:41:42.598Z,55.05
2016-05-28T06:42:42.617Z,55.05
2016-05-28T06:43:42.620Z,55.05
2016-05-28T06:44:42.481Z,55.05
2016-05-28T06:45:42.656Z,55.05
2016-05-28T06:46:42.642Z,55.05
2016-05-28T06:47:42.662Z,55.05
2016-05-28T06:48:42.508Z,55.15
2016-05-28T06:49:42.542Z,55.15
2016-05-28T06:50:42.684Z,54.66
2016-05-28T06:51:42.703Z,54.66
2016-05-28T06:52:42.706Z,54.57
2016-05-28T06:53:42.583Z,54.57
2016-05-28T06:54:42.743Z,54.27
2016-05-28T06:55:42.745Z,54.57
2016-05-28T06:56:42.779Z,54.47
2016-05-28T06:57:42.767Z,54.47
2016-05-28T06:58:42.786Z,54.57
2016-05-28T06:59:42.788Z,54.47
2016-05-28T07:00:42.790Z,54.47
2016-05-28T07:01:42.808Z,54.66
2016-05-28T07:02:42.811Z,54.57
2016-05-28T07:03:42.813Z,54.37
2016-05-28T07:04:43.285Z,54.47
2016-05-28T07:05:42.850Z,54.47
2016-05-28T07:06:42.852Z,54.47
2016-05-28T07:07:42.887Z,54.27
2016-05-28T07:08:42.874Z,54.37
2016-05-28T07:09:42.893Z,54.66
2016-05-28T07:10:42.895Z,54.47
2016-05-28T07:11:42.898Z,54.37
2016-05-28T07:12:42.900Z,54.47
2016-05-28T07:13:42.934Z,54.37
2016-05-28T07:14:42.937Z,54.27
2016-05-28T07:15:42.939Z,54.37
2016-05-28T07:16:42.959Z,54.27
2016-05-28T07:17:42.961Z,54.08
2016-05-28T07:18:42.979Z,54.08
2016-05-28T07:19:42.997Z,54.27
2016-05-28T07:20:43.000Z,54.17
2016-05-28T07:21:43.002Z,53.99
2016-05-28T07:22:42.865Z,54.66
2016-05-28T07:23:43.039Z,54.08
2016-05-28T07:24:42.870Z,54.17
2016-05-28T07:25:42.904Z,54.08
2016-05-28T07:26:43.047Z,54.17
2016-05-28T07:27:43.066Z,54.08
2016-05-28T07:28:43.068Z,54.17
2016-05-28T07:29:43.103Z,54.08
2016-05-28T07:30:42.949Z,54.08
2016-05-28T07:31:43.107Z,54.17
2016-05-28T07:32:43.111Z,54.17
2016-05-28T07:33:43.130Z,53.89
2016-05-28T07:34:42.991Z,53.89
2016-05-28T07:35:43.180Z,53.79
2016-05-28T07:36:43.152Z,53.79
2016-05-28T07:37:43.171Z,53.99
2016-05-28T07:38:43.204Z,53.89
2016-05-28T07:39:43.191Z,54.66
2016-05-28T07:40:43.194Z,53.89
2016-05-28T07:41:43.213Z,54.47
2016-05-28T07:42:43.215Z,53.91
2016-05-28T07:43:43.234Z,54.08
2016-05-28T07:44:43.221Z,53.89
2016-05-28T07:45:43.254Z,54.17
2016-05-28T07:46:43.257Z,53.89
2016-05-28T07:47:43.275Z,53.89
2016-05-28T07:48:43.294Z,53.81
2016-05-28T07:49:43.140Z,53.79
2016-05-28T07:50:43.300Z,53.72
2016-05-28T07:51:43.161Z,54.01
2016-05-28T07:52:43.336Z,53.79
2016-05-28T07:53:43.354Z,53.53
2016-05-28T07:54:43.341Z,53.81
2016-05-28T07:55:43.359Z,53.91
2016-05-28T07:56:43.362Z,53.81
2016-05-28T07:57:43.397Z,54.39
2016-05-28T07:58:43.368Z,54.3
2016-05-28T07:59:43.402Z,53.81
2016-05-28T08:00:43.404Z,54.3
2016-05-28T08:01:43.423Z,54.01
2016-05-28T08:02:43.441Z,54.21
2016-05-28T08:03:43.428Z,53.81
2016-05-28T08:04:43.290Z,53.72
2016-05-28T08:05:43.480Z,53.81
2016-05-28T08:06:43.483Z,53.91
2016-05-28T08:07:43.485Z,53.91
2016-05-28T08:08:43.488Z,53.91
2016-05-28T08:09:43.491Z,54.01
2016-05-28T08:10:43.510Z,53.91
2016-05-28T08:11:43.527Z,54.11
2016-05-28T08:12:47.968Z,54.21
2016-05-28T08:13:43.549Z,54.01
2016-05-28T08:14:43.567Z,53.91
2016-05-28T08:15:43.570Z,53.91
2016-05-28T08:16:43.573Z,54.01
2016-05-28T08:17:43.590Z,54.01
2016-05-28T08:18:43.609Z,54.01
2016-05-28T08:19:44.065Z,54.01
2016-05-28T08:20:43.614Z,54.01
2016-05-28T08:21:43.618Z,54.01
2016-05-28T08:22:43.636Z,53.91
2016-05-28T08:23:43.653Z,54.01
2016-05-28T08:24:43.672Z,54.01
2016-05-28T08:25:43.659Z,54.01
2016-05-28T08:26:43.677Z,53.91
2016-05-28T08:27:43.525Z,54.01
2016-05-28T08:28:43.698Z,53.91
2016-05-28T08:29:43.701Z,54.01
2016-05-28T08:30:43.720Z,54.11
2016-05-28T08:31:43.738Z,54.11
2016-05-28T08:32:43.741Z,54.11
2016-05-28T08:33:43.743Z,54.01
2016-05-28T08:34:44.011Z,54.11
2016-05-28T08:35:43.780Z,53.14
2016-05-28T08:36:43.860Z,53.43
2016-05-28T08:37:43.785Z,53.14
2016-05-28T08:38:43.804Z,53.33
2016-05-28T08:39:43.650Z,53.14
2016-05-28T08:40:43.841Z,53.43
2016-05-28T08:41:43.827Z,53.43
2016-05-28T08:42:43.846Z,53.26
2016-05-28T08:43:43.848Z,53.14
2016-05-28T08:44:43.726Z,53.94
2016-05-28T08:45:43.869Z,53.65
2016-05-28T08:46:43.888Z,52.97
2016-05-28T08:47:43.890Z,53.45
2016-05-28T08:48:43.893Z,52.97
2016-05-28T08:49:43.943Z,53.45
2016-05-28T08:50:43.962Z,52.78
2016-05-28T08:51:43.932Z,53.36
2016-05-28T08:52:43.934Z,53.26
2016-05-28T08:53:43.954Z,52.97
2016-05-28T08:54:43.972Z,53.26
2016-05-28T08:55:43.975Z,53.17
2016-05-28T08:56:43.978Z,53.07
2016-05-28T08:57:44.011Z,53.36
2016-05-28T08:58:43.997Z,53.26
2016-05-28T08:59:44.031Z,53.36
2016-05-28T09:00:44.034Z,53.36
2016-05-28T09:01:44.053Z,52.97
2016-05-28T09:02:44.055Z,53.36
2016-05-28T09:03:44.075Z,52.97
2016-05-28T09:04:44.092Z,53.26
2016-05-28T09:05:44.236Z,53.26
2016-05-28T09:06:44.097Z,53.07
2016-05-28T09:07:44.116Z,52.97
2016-05-28T09:08:43.962Z,53.26
2016-05-28T09:09:44.121Z,53.07
2016-05-28T09:10:44.140Z,53.17
2016-05-28T09:11:44.143Z,53.17
2016-05-28T09:12:44.160Z,53.17
2016-05-28T09:13:44.194Z,53.26
2016-05-28T09:14:44.166Z,53.26
2016-05-28T09:15:44.200Z,53.07
2016-05-28T09:16:44.187Z,53.26
2016-05-28T09:17:44.205Z,53.07
2016-05-28T09:18:44.208Z,53.17
2016-05-28T09:19:44.320Z,53.36
2016-05-28T09:20:44.229Z,52.97
2016-05-28T09:21:44.262Z,53.07
2016-05-28T09:22:44.266Z,53.07
2016-05-28T09:23:44.268Z,53.07
2016-05-28T09:24:44.287Z,53.07
2016-05-28T09:25:44.290Z,52.87
2016-05-28T09:26:44.309Z,52.97
2016-05-28T09:27:44.326Z,52.97
2016-05-28T09:28:44.328Z,53.07
2016-05-28T09:29:44.347Z,52.87
2016-05-28T09:30:44.350Z,52.87
2016-05-28T09:31:44.353Z,52.97
2016-05-28T09:32:44.371Z,53.07
2016-05-28T09:33:44.388Z,53.07
2016-05-28T09:34:44.235Z,52.87
2016-05-28T09:35:44.394Z,53.17
2016-05-28T09:36:44.428Z,52.8
2016-05-28T09:37:44.446Z,53.17
2016-05-28T09:38:44.433Z,53.17
2016-05-28T09:39:44.452Z,53.49
2016-05-28T09:40:44.454Z,53.39
2016-05-28T09:41:44.458Z,52.68
2016-05-28T09:42:44.476Z,52.8
2016-05-28T09:43:44.479Z,52.68
2016-05-28T09:44:44.496Z,52.78
2016-05-28T09:45:44.499Z,52.78
2016-05-28T09:46:44.518Z,52.87
2016-05-28T09:47:44.521Z,53.17
2016-05-28T09:48:44.555Z,53.29
2016-05-28T09:49:44.401Z,53.17
2016-05-28T09:50:44.715Z,53.36
2016-05-28T09:51:47.437Z,52.97
2016-05-28T09:52:45.721Z,53
2016-05-28T09:53:44.583Z,52.8
2016-05-28T09:54:44.617Z,53
2016-05-28T09:55:44.620Z,53.09
2016-05-28T09:56:45.279Z,52.71
2016-05-28T09:57:44.625Z,52.61
2016-05-28T09:58:44.675Z,52.61
2016-05-28T09:59:44.647Z,52.51
2016-05-28T10:00:44.665Z,52.71
2016-05-28T10:01:46.823Z,52.42
2016-05-28T10:02:44.685Z,52.61
2016-05-28T10:03:44.688Z,52.51
2016-05-28T10:04:44.942Z,52.61
2016-05-28T10:05:44.709Z,52.51
2016-05-28T10:06:46.196Z,52.51
2016-05-28T10:07:44.747Z,52.71
2016-05-28T10:08:44.749Z,52.32
2016-05-28T10:09:44.752Z,52.51
2016-05-28T10:10:44.770Z,52.12
2016-05-28T10:11:46.148Z,52.03
2016-05-28T10:12:44.807Z,52.25
2016-05-28T10:13:44.824Z,52.25
2016-05-28T10:14:44.812Z,52.25
2016-05-28T10:15:44.830Z,52.15
2016-05-28T10:16:44.849Z,51.96
2016-05-28T10:17:44.852Z,52.25
2016-05-28T10:18:44.854Z,52.06
2016-05-28T10:19:44.872Z,52.06
2016-05-28T10:20:44.890Z,52.54
2016-05-28T10:21:46.924Z,52.44
2016-05-28T10:22:44.896Z,52.34
2016-05-28T10:23:44.915Z,52.44
2016-05-28T10:24:44.776Z,52.54
2016-05-28T10:25:44.934Z,52.44
2016-05-28T10:26:47.798Z,52.25
2016-05-28T10:27:44.956Z,52.06
2016-05-28T10:28:44.975Z,51.86
2016-05-28T10:29:44.992Z,51.86
2016-05-28T10:30:44.980Z,51.96
2016-05-28T10:31:45.014Z,52.25
2016-05-28T10:32:45.001Z,51.96
2016-05-28T10:33:44.863Z,52.06
2016-05-28T10:34:45.022Z,51.86
2016-05-28T10:35:45.056Z,51.86
2016-05-28T10:36:45.042Z,51.76
2016-05-28T10:37:45.061Z,51.76
2016-05-28T10:38:45.079Z,51.86
2016-05-28T10:39:45.082Z,51.86
2016-05-28T10:40:45.100Z,51.86
2016-05-28T10:41:45.103Z,51.86
2016-05-28T10:42:45.121Z,51.96
2016-05-28T10:43:45.140Z,51.86
2016-05-28T10:44:45.127Z,51.86
2016-05-28T10:45:45.160Z,51.86
2016-05-28T10:46:45.148Z,51.76
2016-05-28T10:47:45.166Z,51.96
2016-05-28T10:48:45.184Z,51.86
2016-05-28T10:49:45.046Z,51.96
2016-05-28T10:50:45.190Z,51.86
2016-05-28T10:51:45.224Z,51.86
2016-05-28T10:52:45.226Z,51.96
2016-05-28T10:53:45.245Z,51.67
2016-05-28T10:54:45.248Z,51.76
2016-05-28T10:55:45.266Z,51.76
2016-05-28T10:56:45.268Z,51.89
2016-05-28T10:57:45.287Z,51.76
2016-05-28T10:58:45.290Z,51.76
2016-05-28T10:59:45.308Z,51.76
2016-05-28T11:00:45.311Z,51.86
2016-05-28T11:01:45.328Z,51.86
2016-05-28T11:02:45.363Z,51.86
2016-05-28T11:03:45.350Z,51.76
2016-05-28T11:04:45.197Z,51.67
2016-05-28T11:05:45.245Z,51.76
2016-05-28T11:06:45.373Z,51.69
2016-05-28T11:07:45.392Z,51.67
2016-05-28T11:08:45.410Z,51.67
2016-05-28T11:09:45.413Z,51.69
2016-05-28T11:10:45.431Z,51.69
2016-05-28T11:11:45.433Z,51.57
2016-05-28T11:12:45.452Z,51.57
2016-05-28T11:13:45.455Z,51.69
2016-05-28T11:14:45.474Z,51.59
2016-05-28T11:15:45.476Z,51.79
2016-05-28T11:16:45.494Z,51.5
2016-05-28T11:17:45.497Z,51.59
2016-05-28T11:18:45.500Z,51.5
2016-05-28T11:19:45.518Z,51.5
2016-05-28T11:20:45.521Z,51.5
2016-05-28T11:21:45.446Z,51.59
2016-05-28T11:22:45.558Z,51.5
2016-05-28T11:23:45.575Z,51.5
2016-05-28T11:24:45.562Z,51.31
2016-05-28T11:25:45.581Z,51.31
2016-05-28T11:26:45.584Z,51.31
2016-05-28T11:27:45.601Z,51.21
2016-05-28T11:28:45.604Z,51.31
2016-05-28T11:29:45.639Z,51.31
2016-05-28T11:30:45.642Z,51.31
2016-05-28T11:31:45.675Z,51.5
2016-05-28T11:32:45.928Z,51.4
2016-05-28T11:33:45.665Z,51.5
2016-05-28T11:34:45.699Z,51.59
2016-05-28T11:35:45.717Z,51.5
2016-05-28T11:36:45.703Z,51.59
2016-05-28T11:37:46.113Z,51.31
2016-05-28T11:38:45.725Z,51.5
2016-05-28T11:39:45.744Z,51.31
2016-05-28T11:40:45.746Z,51.31
2016-05-28T11:41:45.765Z,51.31
2016-05-28T11:42:45.783Z,51.31
2016-05-28T11:43:45.769Z,51.21
2016-05-28T11:44:45.788Z,51.11
2016-05-28T11:45:45.807Z,51.31
2016-05-28T11:46:45.825Z,51.04
2016-05-28T11:47:45.828Z,51.21
2016-05-28T11:48:45.861Z,51.14
2016-05-28T11:49:45.723Z,51.14
2016-05-28T11:50:45.867Z,51.33
2016-05-28T11:51:45.869Z,51.04
2016-05-28T11:52:45.888Z,51.33
2016-05-28T11:53:45.890Z,51.33
2016-05-28T11:54:45.924Z,51.23
2016-05-28T11:55:45.912Z,50.84
2016-05-28T11:56:45.790Z,51.14
2016-05-28T11:57:45.932Z,51.23
2016-05-28T11:58:45.967Z,51.14
2016-05-28T11:59:45.969Z,51.14
2016-05-28T12:00:45.988Z,51.04
2016-05-28T12:01:45.975Z,51.23
2016-05-28T12:02:46.040Z,51.14
2016-05-28T12:03:45.995Z,51.14
2016-05-28T12:04:46.390Z,51.23
2016-05-28T12:05:46.032Z,51.04
2016-05-28T12:06:46.034Z,51.23
2016-05-28T12:07:46.054Z,51.04
2016-05-28T12:08:46.071Z,51.14
2016-05-28T12:09:46.075Z,51.23
2016-05-28T12:10:46.093Z,51.04
2016-05-28T12:11:46.095Z,51.23
2016-05-28T12:12:45.972Z,51.04
2016-05-28T12:13:46.117Z,51.14
2016-05-28T12:14:46.150Z,51.04
2016-05-28T12:15:46.138Z,51.33
2016-05-28T12:16:46.171Z,51.04
2016-05-28T12:17:46.158Z,51.04
2016-05-28T12:18:46.177Z,51.04
2016-05-28T12:19:46.367Z,51.06
2016-05-28T12:20:46.229Z,51.14
2016-05-28T12:21:46.232Z,50.94
2016-05-28T12:22:46.077Z,50.84
2016-05-28T12:23:46.237Z,50.87
2016-05-28T12:24:46.255Z,50.94
2016-05-28T12:25:46.258Z,51.04
2016-05-28T12:26:46.276Z,50.58
2016-05-28T12:27:46.279Z,50.96
2016-05-28T12:28:46.297Z,50.68
2016-05-28T12:29:46.301Z,50.77
2016-05-28T12:30:46.318Z,50.74
2016-05-28T12:31:46.320Z,50.68
2016-05-28T12:32:46.776Z,50.96
2016-05-28T12:33:46.342Z,50.77
2016-05-28T12:34:46.220Z,50.96
2016-05-28T12:35:46.394Z,50.48
2016-05-28T12:36:46.398Z,50.58
2016-05-28T12:37:46.400Z,50.96
2016-05-28T12:38:46.403Z,50.96
2016-05-28T12:39:46.265Z,50.96
2016-05-28T12:40:46.408Z,50.96
2016-05-28T12:41:46.442Z,50.96
2016-05-28T12:42:46.288Z,50.96
2016-05-28T12:43:46.478Z,50.87
2016-05-28T12:44:46.497Z,50.87
2016-05-28T12:45:46.483Z,50.96
2016-05-28T12:46:46.503Z,50.87
2016-05-28T12:47:48.052Z,51.06
2016-05-28T12:48:46.522Z,51.06
2016-05-28T12:49:46.775Z,50.96
2016-05-28T12:50:46.544Z,51.16
2016-05-28T12:51:46.562Z,50.96
2016-05-28T12:52:46.549Z,50.96
2016-05-28T12:53:46.568Z,50.96